Amado, Arizona
Current Conditions -  °F | °C
As of 10:54 AM on Thursday 23 Oct 2014 (Local Time) from KOLS Reporting Station
Clear Clear  
Wind Chill: 79°   Ceiling: Unl
Heat Index: 79°   Visibility: 10mi
Dew Point: 47°   Wind: 6mph
Humidity: 32%   Direction: NA
Pressure: 30.18"   Gusts: NA
Location:  31.71°N, 111.07°W
Report Text: KOLS 231754Z AUTO VRB05KT 10SM CLR 26/08 A3018 RMK AO2 SLP164 T02610083 10261 20094 50000
Loading
Personal Weather Stations






























Interactive Weather Map
Tropical Storm Tracking
New forecast layout! Learn more

10-Day Weather Forecast

Advertisements
Track Severe Weather on mobile